Time;durP1;ratioP1;P1;durP2;ratioP2;P2;SDS_P1;SDS_P2;PMS_P1;PMS_P2;Temp;Humidity;BMP_temperature;BMP_pressure;BME280_temperature;BME280_humidity;BME280_pressure;Samples;Min_cycle;Max_cycle;Signal;HPM_P1;HPM_P2
2023/05/22 00:01:06;;;;;;;28.00;21.42;;;17.30;99.90;;;;;;5035320;28;20049;-62
2023/05/22 00:03:32;;;;;;;29.25;21.33;;;17.30;99.90;;;;;;5035400;28;20417;-62
2023/05/22 00:05:59;;;;;;;27.17;21.50;;;17.30;99.90;;;;;;5032774;28;20056;-62
2023/05/22 00:08:26;;;;;;;29.33;20.33;;;17.30;99.90;;;;;;5032787;28;20041;-61
2023/05/22 00:10:52;;;;;;;26.33;20.30;;;17.30;99.90;;;;;;5033044;28;20036;-62
2023/05/22 00:13:17;;;;;;;27.40;20.95;;;17.30;99.90;;;;;;5032415;28;20032;-62
2023/05/22 00:15:43;;;;;;;29.98;20.52;;;17.30;99.90;;;;;;5033474;28;20536;-61
2023/05/22 00:18:09;;;;;;;29.17;21.02;;;17.30;99.90;;;;;;5032929;28;20156;-61
2023/05/22 00:20:37;;;;;;;27.23;21.73;;;17.20;99.90;;;;;;5040154;28;20567;-61
2023/05/22 00:23:04;;;;;;;26.45;20.27;;;17.20;99.90;;;;;;5031918;28;20049;-62
2023/05/22 00:25:29;;;;;;;26.33;19.67;;;17.20;99.90;;;;;;5027998;28;20098;-61
2023/05/22 00:27:55;;;;;;;27.38;19.85;;;17.30;99.90;;;;;;5031921;28;20067;-61
2023/05/22 00:30:21;;;;;;;22.17;18.65;;;17.30;99.90;;;;;;5027379;28;20053;-62
2023/05/22 00:32:46;;;;;;;29.98;20.20;;;17.30;99.90;;;;;;5032140;28;20126;-62
2023/05/22 00:35:12;;;;;;;25.55;19.73;;;17.40;99.90;;;;;;5034129;28;20389;-60
2023/05/22 00:37:38;;;;;;;30.25;20.55;;;17.40;99.90;;;;;;5021626;28;20080;-62
2023/05/22 00:40:06;;;;;;;25.38;19.55;;;17.40;99.90;;;;;;5033353;28;20717;-61
2023/05/22 00:42:32;;;;;;;23.63;18.85;;;17.40;99.90;;;;;;5030702;28;20539;-61
2023/05/22 00:44:58;;;;;;;21.48;17.48;;;17.40;99.90;;;;;;5005393;28;20044;-61
2023/05/22 00:47:25;;;;;;;25.05;19.48;;;17.40;99.90;;;;;;5034331;28;20091;-62
2023/05/22 00:49:52;;;;;;;28.08;19.73;;;17.40;99.90;;;;;;5015962;28;20056;-62
2023/05/22 00:52:18;;;;;;;25.98;19.45;;;17.40;99.90;;;;;;5036875;28;20047;-61
2023/05/22 00:54:45;;;;;;;26.00;19.50;;;17.40;99.90;;;;;;5030856;28;20119;-62
2023/05/22 00:57:11;;;;;;;24.00;18.80;;;17.40;99.90;;;;;;5035866;28;20526;-62
2023/05/22 00:59:37;;;;;;;25.42;19.52;;;17.40;99.90;;;;;;5034586;28;20039;-62
2023/05/22 01:02:03;;;;;;;26.33;19.08;;;17.40;99.90;;;;;;5031591;28;20041;-60
2023/05/22 01:04:31;;;;;;;27.98;18.70;;;17.40;99.90;;;;;;5033537;28;20049;-61
2023/05/22 01:06:58;;;;;;;24.38;18.63;;;17.40;99.90;;;;;;5034781;28;20038;-60
2023/05/22 01:09:23;;;;;;;21.83;18.92;;;17.40;99.90;;;;;;5030067;28;20129;-61
2023/05/22 01:12:23;;;;;;;26.30;19.48;;;17.40;99.90;;;;;;5036882;28;20123;-61
2023/05/22 01:14:58;;;;;;;22.77;19.10;;;17.40;99.90;;;;;;5030392;28;20084;-61
2023/05/22 01:17:33;;;;;;;27.63;19.55;;;17.40;99.90;;;;;;5012996;28;20531;-61
2023/05/22 01:20:24;;;;;;;25.17;20.60;;;17.40;99.90;;;;;;5032620;28;20204;-61
2023/05/22 01:23:21;;;;;;;24.20;19.77;;;17.30;99.90;;;;;;5033375;28;20092;-61
2023/05/22 01:26:15;;;;;;;23.27;19.98;;;17.30;99.90;;;;;;5032190;28;20072;-61
2023/05/22 01:28:46;;;;;;;26.42;21.10;;;17.30;99.90;;;;;;5035081;28;20041;-62
2023/05/22 01:31:16;;;;;;;25.33;18.33;;;17.30;99.90;;;;;;5029620;28;20077;-60
2023/05/22 01:33:47;;;;;;;26.70;20.00;;;17.30;99.90;;;;;;5034192;28;20282;-61
2023/05/22 01:36:21;;;;;;;25.25;20.55;;;17.30;99.90;;;;;;5035472;28;20049;-61
2023/05/22 01:38:48;;;;;;;24.08;19.17;;;17.30;99.90;;;;;;5032354;28;20493;-61
2023/05/22 01:41:15;;;;;;;28.92;21.55;;;17.30;99.90;;;;;;5017089;28;20144;-62
2023/05/22 01:43:41;;;;;;;28.20;21.45;;;17.30;99.90;;;;;;5034282;28;20095;-62
2023/05/22 01:46:06;;;;;;;28.90;22.85;;;17.20;99.90;;;;;;5022761;28;20199;-62
2023/05/22 01:48:33;;;;;;;25.25;20.45;;;17.20;99.90;;;;;;5035400;28;20045;-61
2023/05/22 01:51:10;;;;;;;26.88;22.17;;;17.20;99.90;;;;;;5033795;28;20045;-62
2023/05/22 01:53:47;;;;;;;25.77;20.75;;;17.20;99.90;;;;;;5022234;28;20032;-61
2023/05/22 01:56:29;;;;;;;25.95;20.98;;;17.20;99.90;;;;;;5032677;28;20505;-60
2023/05/22 01:59:01;;;;;;;26.63;20.92;;;17.10;99.90;;;;;;5032189;28;20527;-62
2023/05/22 02:01:29;;;;;;;29.30;21.80;;;17.10;99.90;;;;;;5031549;28;20048;-60
2023/05/22 02:03:57;;;;;;;32.20;22.67;;;17.10;99.90;;;;;;5031900;28;20139;-61
2023/05/22 02:06:27;;;;;;;28.63;22.73;;;17.00;99.90;;;;;;5032606;28;20378;-61
2023/05/22 02:08:54;;;;;;;28.48;22.55;;;17.00;99.90;;;;;;5034094;28;20044;-62
2023/05/22 02:11:23;;;;;;;31.60;23.20;;;17.00;99.90;;;;;;5030680;28;20037;-62
2023/05/22 02:13:50;;;;;;;31.33;23.45;;;17.00;99.90;;;;;;5034784;28;20053;-60
2023/05/22 02:16:16;;;;;;;27.90;22.73;;;17.00;99.90;;;;;;5032204;28;20116;-62
2023/05/22 02:18:43;;;;;;;28.30;22.88;;;17.00;99.90;;;;;;5036152;28;20470;-62
2023/05/22 02:21:08;;;;;;;27.52;23.35;;;17.00;99.90;;;;;;5015538;28;20505;-61
2023/05/22 02:23:34;;;;;;;28.67;22.50;;;17.00;99.90;;;;;;5037395;28;20101;-62
2023/05/22 02:26:00;;;;;;;32.08;24.45;;;17.00;99.90;;;;;;5033771;28;20039;-62
2023/05/22 02:28:26;;;;;;;28.48;22.98;;;17.00;99.90;;;;;;5033908;28;20041;-62
2023/05/22 02:30:52;;;;;;;35.50;23.58;;;17.00;99.90;;;;;;5036069;28;20408;-61
2023/05/22 02:33:17;;;;;;;29.38;24.13;;;17.00;99.90;;;;;;5035681;28;20106;-61
2023/05/22 02:35:46;;;;;;;29.70;24.63;;;16.90;99.90;;;;;;5032559;28;20044;-62
2023/05/22 02:38:12;;;;;;;30.77;23.85;;;16.90;99.90;;;;;;5032284;28;20135;-61
2023/05/22 02:40:38;;;;;;;30.40;25.60;;;16.90;99.90;;;;;;5040526;28;20863;-61
2023/05/22 02:43:04;;;;;;;30.13;25.65;;;16.90;99.90;;;;;;5033701;28;20037;-61
2023/05/22 02:45:30;;;;;;;33.90;25.25;;;16.80;99.90;;;;;;5038216;28;20044;-61
2023/05/22 02:47:56;;;;;;;36.38;25.15;;;16.80;99.90;;;;;;5035375;28;20033;-62
2023/05/22 02:50:22;;;;;;;35.50;25.38;;;16.80;99.90;;;;;;5032696;28;20064;-60
2023/05/22 02:52:49;;;;;;;32.30;25.45;;;16.70;99.90;;;;;;5020085;28;20382;-62
2023/05/22 02:55:15;;;;;;;32.97;26.33;;;16.70;99.90;;;;;;5024612;28;20140;-61
2023/05/22 02:57:40;;;;;;;36.88;26.23;;;16.70;99.90;;;;;;5030899;28;20416;-60
2023/05/22 03:00:10;;;;;;;29.50;25.08;;;16.70;99.90;;;;;;5035141;28;20576;-61
2023/05/22 03:02:37;;;;;;;31.33;24.95;;;16.70;99.90;;;;;;5034246;28;20449;-61
2023/05/22 03:05:04;;;;;;;32.67;24.98;;;16.70;99.90;;;;;;5036934;28;20041;-62
2023/05/22 03:07:30;;;;;;;33.90;25.95;;;16.70;99.90;;;;;;5037971;28;20042;-62
2023/05/22 03:09:56;;;;;;;27.95;23.73;;;16.70;99.90;;;;;;5032741;28;20095;-61
2023/05/22 03:12:22;;;;;;;32.70;25.33;;;16.70;99.90;;;;;;5037535;28;20496;-61
2023/05/22 03:14:48;;;;;;;27.73;22.95;;;16.70;99.90;;;;;;5036881;28;20052;-61
2023/05/22 03:17:14;;;;;;;32.15;24.95;;;16.70;99.90;;;;;;5035238;28;20519;-61
2023/05/22 03:19:40;;;;;;;34.30;25.27;;;16.70;99.90;;;;;;5034829;28;20124;-62
2023/05/22 03:22:06;;;;;;;30.65;25.75;;;16.70;99.90;;;;;;5030889;28;20068;-61
2023/05/22 03:24:31;;;;;;;28.15;24.30;;;16.70;99.90;;;;;;5005195;28;20045;-61
2023/05/22 03:26:58;;;;;;;45.45;26.75;;;16.70;99.90;;;;;;5037871;28;20073;-61
2023/05/22 03:29:25;;;;;;;32.38;27.17;;;16.70;99.90;;;;;;5035338;28;20087;-61
2023/05/22 03:31:52;;;;;;;36.17;27.63;;;16.70;99.90;;;;;;5030116;28;20558;-60
2023/05/22 03:34:18;;;;;;;34.45;26.75;;;16.60;99.90;;;;;;5034428;28;20044;-62
2023/05/22 03:36:44;;;;;;;45.08;29.00;;;16.60;99.90;;;;;;5034264;28;20045;-61
2023/05/22 03:39:10;;;;;;;34.35;27.10;;;16.60;99.90;;;;;;5037013;28;20036;-62
2023/05/22 03:41:36;;;;;;;37.72;27.30;;;16.60;99.90;;;;;;5031099;28;22575;-61
2023/05/22 03:44:02;;;;;;;37.00;27.02;;;16.50;99.90;;;;;;5032968;28;20049;-59
2023/05/22 03:46:28;;;;;;;35.80;27.85;;;16.50;99.90;;;;;;5034760;28;20438;-61
2023/05/22 03:48:54;;;;;;;40.20;28.55;;;16.50;99.90;;;;;;5003101;28;20037;-61
2023/05/22 03:51:20;;;;;;;39.33;28.08;;;16.50;99.90;;;;;;5032865;28;20547;-61
2023/05/22 03:53:46;;;;;;;34.95;27.63;;;16.40;99.90;;;;;;5034479;28;20056;-61
2023/05/22 03:56:12;;;;;;;42.50;28.90;;;16.40;99.90;;;;;;5027371;28;20604;-61
2023/05/22 03:58:37;;;;;;;35.85;28.08;;;16.40;99.90;;;;;;5034858;28;20048;-61
2023/05/22 04:01:04;;;;;;;36.80;27.85;;;16.40;99.90;;;;;;5031753;28;20045;-61
2023/05/22 04:03:30;;;;;;;40.00;28.95;;;16.40;99.90;;;;;;5039220;28;20037;-61
2023/05/22 04:05:56;;;;;;;35.38;27.77;;;16.30;99.90;;;;;;5026651;28;20049;-61
2023/05/22 04:08:22;;;;;;;39.30;28.27;;;16.30;99.90;;;;;;5029752;28;20049;-61
2023/05/22 04:10:47;;;;;;;36.00;27.27;;;16.30;99.90;;;;;;5031415;28;20051;-61
2023/05/22 04:13:15;;;;;;;40.22;28.90;;;16.30;99.90;;;;;;5028513;28;20044;-61
2023/05/22 04:15:44;;;;;;;35.35;26.02;;;16.30;99.90;;;;;;5027498;28;20060;-61
2023/05/22 04:18:10;;;;;;;35.92;27.45;;;16.20;99.90;;;;;;5000027;28;20039;-61
2023/05/22 04:20:36;;;;;;;36.95;26.67;;;16.20;99.90;;;;;;5037474;28;20564;-61
2023/05/22 04:23:02;;;;;;;38.53;27.65;;;16.20;99.90;;;;;;5017371;28;20524;-62
2023/05/22 04:25:28;;;;;;;35.25;25.40;;;16.30;99.90;;;;;;5034848;28;20159;-61
2023/05/22 04:27:54;;;;;;;35.25;26.67;;;16.20;99.90;;;;;;5029154;28;20151;-61
2023/05/22 04:30:21;;;;;;;33.15;26.45;;;16.30;99.90;;;;;;5035748;28;20045;-61
2023/05/22 04:32:47;;;;;;;34.95;24.83;;;16.20;99.90;;;;;;5036879;28;20075;-61
2023/05/22 04:35:17;;;;;;;31.05;25.30;;;16.30;99.90;;;;;;5040380;28;20124;-61
2023/05/22 04:37:44;;;;;;;36.17;24.75;;;16.30;99.90;;;;;;5035832;28;20040;-61
2023/05/22 04:40:11;;;;;;;35.17;24.17;;;16.30;99.90;;;;;;5040164;28;20052;-61
2023/05/22 04:42:37;;;;;;;33.50;24.25;;;16.30;99.90;;;;;;5042390;28;20099;-61
2023/05/22 04:45:04;;;;;;;32.05;24.92;;;16.30;99.90;;;;;;5029464;28;20041;-61
2023/05/22 04:47:30;;;;;;;35.95;23.90;;;16.30;99.90;;;;;;5040899;28;20044;-61
2023/05/22 04:49:57;;;;;;;33.50;24.90;;;16.40;99.90;;;;;;5037064;28;20034;-61
2023/05/22 04:52:23;;;;;;;33.60;23.50;;;16.30;99.90;;;;;;5036756;28;20056;-61
2023/05/22 04:54:51;;;;;;;31.40;23.45;;;16.40;99.90;;;;;;5038399;28;20409;-61
2023/05/22 04:57:20;;;;;;;28.27;22.38;;;16.40;99.90;;;;;;5038322;28;20519;-61
2023/05/22 04:59:46;;;;;;;28.30;22.30;;;16.40;99.90;;;;;;5034811;28;20112;-61
2023/05/22 05:02:13;;;;;;;30.83;21.90;;;16.40;99.90;;;;;;5035064;28;20041;-61
2023/05/22 05:04:38;;;;;;;29.95;23.08;;;16.40;99.90;;;;;;5042974;28;20446;-61
2023/05/22 05:07:05;;;;;;;31.55;23.83;;;16.50;99.90;;;;;;5037779;28;20112;-61
2023/05/22 05:09:31;;;;;;;31.02;23.50;;;16.50;99.90;;;;;;5048779;28;20058;-61
2023/05/22 05:11:57;;;;;;;31.35;22.88;;;16.50;99.90;;;;;;5043874;28;20044;-61
2023/05/22 05:14:23;;;;;;;27.75;21.80;;;16.60;99.90;;;;;;5042579;28;20048;-61
2023/05/22 05:16:50;;;;;;;29.50;22.20;;;16.60;99.90;;;;;;5034973;28;20389;-60
2023/05/22 05:19:20;;;;;;;29.30;20.63;;;16.60;99.90;;;;;;5030404;28;20033;-61
2023/05/22 05:21:46;;;;;;;27.38;20.60;;;16.60;99.90;;;;;;5041463;28;20045;-61
2023/05/22 05:24:18;;;;;;;32.97;20.73;;;16.60;99.90;;;;;;5037207;28;20405;-61
2023/05/22 05:26:44;;;;;;;28.20;19.63;;;16.60;99.90;;;;;;5038148;28;20029;-60
2023/05/22 05:29:11;;;;;;;31.25;20.48;;;16.60;99.90;;;;;;5033639;28;20051;-61
2023/05/22 05:31:37;;;;;;;29.05;19.98;;;16.60;99.90;;;;;;5039319;28;20524;-61
2023/05/22 05:34:03;;;;;;;25.77;18.90;;;16.60;99.90;;;;;;5034521;28;20044;-61
2023/05/22 05:36:29;;;;;;;29.52;20.02;;;16.60;99.90;;;;;;5038115;28;20493;-61
2023/05/22 05:38:57;;;;;;;26.02;18.27;;;16.60;99.90;;;;;;5021333;28;20029;-60
2023/05/22 05:41:23;;;;;;;25.85;18.65;;;16.60;99.90;;;;;;5024563;28;20127;-61
2023/05/22 05:43:51;;;;;;;26.67;17.48;;;16.70;99.90;;;;;;5027390;28;20037;-61
2023/05/22 05:46:17;;;;;;;24.70;16.88;;;16.70;99.90;;;;;;5034869;28;20037;-61
2023/05/22 05:48:44;;;;;;;24.13;16.48;;;16.70;99.90;;;;;;5031152;28;20040;-61
2023/05/22 05:51:09;;;;;;;25.60;16.38;;;16.70;99.90;;;;;;5030318;28;20124;-61
2023/05/22 05:53:41;;;;;;;25.40;15.70;;;16.70;99.90;;;;;;5044105;28;20238;-61
2023/05/22 05:56:08;;;;;;;25.08;17.27;;;16.70;99.90;;;;;;5030695;28;20049;-61
2023/05/22 05:58:33;;;;;;;27.48;16.50;;;16.70;99.90;;;;;;5031334;28;20078;-61
2023/05/22 06:00:59;;;;;;;30.25;16.73;;;16.70;99.90;;;;;;5037216;28;20485;-61
2023/05/22 06:03:25;;;;;;;24.95;17.50;;;16.70;99.90;;;;;;5040528;28;20040;-61
2023/05/22 06:05:52;;;;;;;24.23;16.60;;;16.80;99.90;;;;;;5028047;28;20053;-61
2023/05/22 06:08:18;;;;;;;23.58;16.92;;;16.80;99.90;;;;;;5035532;28;20037;-61
2023/05/22 06:10:45;;;;;;;25.48;17.88;;;16.80;99.90;;;;;;5046419;28;20055;-59
2023/05/22 06:13:11;;;;;;;24.05;16.30;;;16.80;99.90;;;;;;5030756;28;20067;-58
2023/05/22 06:15:36;;;;;;;31.77;16.92;;;16.80;99.90;;;;;;5042977;28;20040;-60
2023/05/22 06:18:02;;;;;;;25.40;15.75;;;16.80;99.90;;;;;;5037696;28;20490;-60
2023/05/22 06:20:28;;;;;;;32.38;15.38;;;16.80;99.90;;;;;;5038437;28;20069;-59
2023/05/22 06:22:54;;;;;;;36.47;16.35;;;16.80;99.90;;;;;;5034819;28;20412;-59
2023/05/22 06:25:20;;;;;;;33.17;15.13;;;16.70;99.90;;;;;;5039057;28;20045;-60
2023/05/22 06:27:46;;;;;;;28.98;15.07;;;16.70;99.90;;;;;;5041092;28;20048;-60
2023/05/22 06:30:12;;;;;;;26.70;13.80;;;16.60;99.90;;;;;;5044037;28;20079;-60
2023/05/22 06:32:38;;;;;;;26.40;13.65;;;16.60;99.90;;;;;;5043727;28;20103;-60
2023/05/22 06:35:04;;;;;;;25.63;13.73;;;16.60;99.90;;;;;;5041542;28;20041;-59
2023/05/22 06:37:34;;;;;;;23.83;13.48;;;16.60;99.90;;;;;;5025084;28;20127;-59
2023/05/22 06:40:00;;;;;;;19.92;11.73;;;16.60;99.90;;;;;;5028280;28;20055;-60
2023/05/22 06:42:26;;;;;;;20.67;11.35;;;16.60;99.90;;;;;;5025117;28;20053;-60
2023/05/22 06:44:51;;;;;;;20.48;11.02;;;16.60;99.90;;;;;;5046165;28;20493;-59
2023/05/22 06:47:17;;;;;;;25.30;11.20;;;16.60;99.90;;;;;;5039565;28;20029;-59
2023/05/22 06:49:43;;;;;;;21.92;11.18;;;16.70;99.90;;;;;;5041984;28;20049;-59
2023/05/22 06:52:09;;;;;;;20.70;10.35;;;16.70;99.90;;;;;;5036284;28;20051;-59
2023/05/22 06:54:35;;;;;;;17.35;9.27;;;16.70;99.90;;;;;;5043454;28;20049;-58
2023/05/22 06:57:02;;;;;;;20.30;9.77;;;16.70;99.90;;;;;;5043372;28;20040;-59
2023/05/22 06:59:29;;;;;;;20.05;9.75;;;16.60;99.90;;;;;;5037565;28;20041;-59
2023/05/22 07:01:55;;;;;;;33.08;10.43;;;16.60;99.90;;;;;;5038416;28;20041;-59
2023/05/22 07:04:21;;;;;;;19.25;9.20;;;16.50;99.90;;;;;;5041828;28;20045;-59
2023/05/22 07:06:47;;;;;;;18.15;9.48;;;16.50;99.90;;;;;;5042676;28;20067;-60
2023/05/22 07:09:14;;;;;;;23.88;9.60;;;16.40;99.90;;;;;;5043821;28;20037;-59
2023/05/22 07:11:42;;;;;;;18.25;8.82;;;16.40;99.90;;;;;;5040498;28;20099;-59
2023/05/22 07:14:08;;;;;;;19.65;8.93;;;16.40;99.90;;;;;;5044497;28;20064;-60
2023/05/22 07:16:35;;;;;;;19.00;8.75;;;16.40;99.90;;;;;;5040049;28;20131;-57
2023/05/22 07:19:02;;;;;;;19.10;8.57;;;16.40;99.90;;;;;;5040718;28;20037;-59
2023/05/22 07:21:30;;;;;;;21.90;10.07;;;16.40;99.90;;;;;;5043796;28;20045;-58
2023/05/22 07:23:56;;;;;;;17.23;8.63;;;16.40;99.90;;;;;;5047173;28;20041;-59
2023/05/22 07:26:22;;;;;;;22.80;8.32;;;16.30;99.90;;;;;;5042169;28;20532;-58
2023/05/22 07:28:48;;;;;;;14.98;8.23;;;16.30;99.90;;;;;;5041239;28;20489;-59
2023/05/22 07:31:14;;;;;;;22.20;8.57;;;16.30;99.90;;;;;;5045642;28;20067;-59
2023/05/22 07:33:39;;;;;;;20.67;8.25;;;16.20;99.90;;;;;;5040259;28;20041;-59
2023/05/22 07:36:05;;;;;;;22.58;8.90;;;16.20;99.90;;;;;;5039456;28;20048;-60
2023/05/22 07:38:31;;;;;;;16.45;7.97;;;16.20;99.90;;;;;;5046081;28;20055;-60
2023/05/22 07:40:57;;;;;;;18.23;8.05;;;16.20;99.90;;;;;;5050650;28;20032;-58
2023/05/22 07:43:23;;;;;;;16.73;8.05;;;16.20;99.90;;;;;;5027361;28;20051;-59
2023/05/22 07:45:48;;;;;;;18.65;8.50;;;16.10;99.90;;;;;;5045619;28;20067;-59
2023/05/22 07:48:14;;;;;;;21.02;8.18;;;16.10;99.90;;;;;;5045533;28;20033;-60
2023/05/22 07:50:44;;;;;;;19.13;8.63;;;16.10;99.90;;;;;;5028152;28;20095;-59
2023/05/22 07:53:10;;;;;;;22.00;8.48;;;16.20;99.90;;;;;;5045387;28;20424;-59
2023/05/22 07:55:36;;;;;;;17.25;8.23;;;16.20;99.90;;;;;;5048341;28;20057;-58
2023/05/22 07:58:03;;;;;;;17.20;8.07;;;16.20;99.90;;;;;;5042536;28;20098;-59
2023/05/22 08:00:28;;;;;;;20.67;8.38;;;16.30;99.90;;;;;;5040048;28;20041;-59
2023/05/22 08:02:54;;;;;;;18.70;8.23;;;16.30;99.90;;;;;;5040559;28;20060;-59
2023/05/22 08:05:20;;;;;;;15.85;8.32;;;16.40;99.90;;;;;;5040929;28;20562;-60
2023/05/22 08:07:46;;;;;;;21.40;8.52;;;16.40;99.90;;;;;;5037228;28;20048;-59
2023/05/22 08:10:16;;;;;;;19.98;7.93;;;16.40;99.90;;;;;;5042194;28;20444;-58
2023/05/22 08:12:42;;;;;;;16.70;8.15;;;16.40;99.90;;;;;;5039564;28;20046;-60
2023/05/22 08:15:08;;;;;;;21.27;8.45;;;16.40;99.90;;;;;;5042039;28;20033;-60
2023/05/22 08:17:34;;;;;;;16.35;8.32;;;16.40;99.90;;;;;;5048484;28;20070;-59
2023/05/22 08:20:00;;;;;;;18.90;8.07;;;16.40;99.90;;;;;;5051275;28;20028;-59
2023/05/22 08:22:27;;;;;;;18.58;8.75;;;16.30;99.90;;;;;;5042294;28;20056;-60
2023/05/22 08:24:53;;;;;;;20.10;8.60;;;16.30;99.90;;;;;;5041010;28;20087;-60
2023/05/22 08:27:19;;;;;;;19.33;8.50;;;16.20;99.90;;;;;;5044869;28;20036;-59
2023/05/22 08:29:45;;;;;;;15.75;8.25;;;16.20;99.90;;;;;;5036997;28;20072;-59
2023/05/22 08:32:10;;;;;;;17.40;8.57;;;16.30;99.90;;;;;;5039091;28;20049;-59
2023/05/22 08:34:36;;;;;;;22.02;9.25;;;16.20;99.90;;;;;;5046074;28;20128;-59
2023/05/22 08:37:03;;;;;;;25.08;8.93;;;16.30;99.90;;;;;;5039299;28;20048;-59
2023/05/22 08:39:30;;;;;;;20.85;8.90;;;16.20;99.90;;;;;;5043871;28;20048;-59
2023/05/22 08:41:55;;;;;;;16.13;9.00;;;16.20;99.90;;;;;;5041541;28;20431;-59
2023/05/22 08:44:21;;;;;;;17.73;9.13;;;16.20;99.90;;;;;;5039153;28;20045;-59
2023/05/22 08:46:48;;;;;;;15.35;8.65;;;16.20;99.90;;;;;;5040266;28;20082;-59
2023/05/22 08:49:16;;;;;;;19.38;9.45;;;16.20;99.90;;;;;;5012679;28;20053;-59
2023/05/22 08:51:47;;;;;;;17.25;9.50;;;16.30;99.90;;;;;;5042130;28;20084;-58
2023/05/22 08:54:17;;;;;;;16.80;9.35;;;16.20;99.90;;;;;;5037838;28;20061;-60
2023/05/22 08:56:44;;;;;;;16.75;9.57;;;16.20;99.90;;;;;;5040236;28;20147;-59
2023/05/22 08:59:10;;;;;;;16.52;9.27;;;16.20;99.90;;;;;;5046967;28;20045;-59
2023/05/22 09:01:36;;;;;;;19.58;9.60;;;16.20;99.90;;;;;;5044399;28;20045;-59
2023/05/22 09:04:02;;;;;;;17.38;10.27;;;16.20;99.90;;;;;;5044601;28;20042;-59
2023/05/22 09:06:28;;;;;;;17.73;9.63;;;16.20;99.90;;;;;;5045322;28;20504;-59
2023/05/22 09:08:56;;;;;;;20.83;11.00;;;16.30;99.90;;;;;;5044583;28;20049;-59
2023/05/22 09:11:23;;;;;;;23.70;11.15;;;16.30;99.90;;;;;;5059171;28;20037;-59
2023/05/22 09:13:50;;;;;;;17.95;10.05;;;16.30;99.90;;;;;;5036727;28;20131;-59
2023/05/22 09:16:17;;;;;;;16.95;10.45;;;16.40;99.90;;;;;;5044907;28;20041;-59
2023/05/22 09:18:42;;;;;;;17.92;10.35;;;16.40;99.90;;;;;;5034569;28;20044;-59
2023/05/22 09:21:10;;;;;;;19.17;9.85;;;16.40;99.90;;;;;;5039876;28;20523;-59
2023/05/22 09:23:36;;;;;;;13.75;9.40;;;16.50;99.90;;;;;;5041911;28;20041;-59
2023/05/22 09:26:02;;;;;;;18.85;10.10;;;16.50;99.90;;;;;;5042502;28;20589;-59
2023/05/22 09:28:36;;;;;;;19.15;9.90;;;16.60;99.90;;;;;;5042918;28;20090;-58
2023/05/22 09:31:02;;;;;;;19.63;10.23;;;16.70;99.90;;;;;;5041205;28;20426;-59
2023/05/22 09:33:30;;;;;;;23.25;10.65;;;16.70;99.90;;;;;;5042468;28;20116;-59
2023/05/22 09:35:57;;;;;;;20.60;10.60;;;16.80;99.90;;;;;;5042388;28;20413;-58
2023/05/22 09:38:27;;;;;;;19.15;10.88;;;17.00;99.90;;;;;;5037941;28;20037;-59
2023/05/22 09:40:54;;;;;;;18.58;10.30;;;17.10;99.90;;;;;;5038776;28;20165;-59
2023/05/22 09:43:21;;;;;;;17.42;10.85;;;17.10;99.90;;;;;;5039794;28;20563;-60
2023/05/22 09:45:47;;;;;;;18.65;10.35;;;17.30;99.90;;;;;;5038743;28;20091;-59
2023/05/22 09:48:16;;;;;;;22.83;10.05;;;17.50;99.90;;;;;;5038061;28;20045;-59
2023/05/22 09:50:47;;;;;;;21.98;10.98;;;17.70;99.90;;;;;;5037508;28;20075;-60
2023/05/22 09:53:15;;;;;;;20.25;11.85;;;17.80;99.90;;;;;;5031768;28;20041;-59
2023/05/22 09:55:46;;;;;;;21.48;10.88;;;17.90;99.90;;;;;;5029102;28;20049;-59
2023/05/22 09:58:15;;;;;;;20.83;10.65;;;18.00;99.90;;;;;;5037400;28;20556;-59
2023/05/22 10:00:41;;;;;;;21.67;11.27;;;18.10;99.90;;;;;;5047077;28;20041;-59
2023/05/22 10:03:17;;;;;;;23.02;11.50;;;18.30;99.90;;;;;;5043024;28;20053;-59
2023/05/22 10:05:50;;;;;;;22.40;10.68;;;18.40;99.90;;;;;;5018797;28;20044;-60
2023/05/22 10:08:25;;;;;;;22.65;10.85;;;18.50;99.90;;;;;;5047414;28;20044;-59
2023/05/22 10:10:54;;;;;;;22.10;12.25;;;18.50;99.90;;;;;;5041917;28;20040;-59
2023/05/22 10:13:20;;;;;;;23.90;12.30;;;18.40;99.90;;;;;;5040629;28;20036;-58
2023/05/22 10:15:47;;;;;;;23.13;12.32;;;18.50;99.90;;;;;;5037384;28;20047;-58
2023/05/22 10:18:15;;;;;;;21.92;12.52;;;18.50;99.90;;;;;;5044336;28;20045;-59
2023/05/22 10:20:41;;;;;;;23.75;12.38;;;18.60;99.90;;;;;;5042693;28;20054;-57
2023/05/22 10:23:08;;;;;;;29.77;12.77;;;18.80;99.90;;;;;;5037516;28;20127;-59
2023/05/22 10:25:36;;;;;;;30.63;13.23;;;19.00;99.90;;;;;;5041911;28;20041;-59
2023/05/22 10:28:03;;;;;;;30.08;13.60;;;19.20;99.90;;;;;;5042653;28;20045;-59
2023/05/22 10:30:59;;;;;;;24.15;13.30;;;19.30;99.90;;;;;;5046797;28;20041;-59
2023/05/22 10:33:30;;;;;;;28.20;13.45;;;19.50;99.90;;;;;;5039472;28;20138;-59
2023/05/22 10:36:26;;;;;;;23.40;12.65;;;19.60;99.90;;;;;;5044501;28;20053;-59
2023/05/22 10:39:19;;;;;;;24.98;12.40;;;19.80;99.90;;;;;;5045628;28;20049;-59
2023/05/22 10:41:45;;;;;;;22.30;12.50;;;19.80;99.90;;;;;;5045367;28;20041;-59
2023/05/22 10:44:11;;;;;;;29.30;13.55;;;19.80;99.90;;;;;;5045256;28;20041;-59
2023/05/22 10:46:37;;;;;;;28.20;13.55;;;19.80;99.90;;;;;;5045360;28;20092;-59
2023/05/22 10:49:03;;;;;;;26.52;13.20;;;19.80;99.90;;;;;;5046241;28;20048;-59
2023/05/22 10:51:31;;;;;;;28.45;13.25;;;19.80;99.90;;;;;;5048277;28;20039;-60
2023/05/22 10:54:04;;;;;;;25.08;13.38;;;19.90;99.90;;;;;;5045623;28;20049;-59
2023/05/22 10:56:36;;;;;;;24.85;12.85;;;20.00;99.90;;;;;;5031352;28;20067;-59
2023/05/22 10:59:06;;;;;;;24.50;12.82;;;20.10;99.90;;;;;;5046236;28;20084;-59
2023/05/22 11:01:34;;;;;;;27.00;13.23;;;20.30;99.90;;;;;;5034610;28;20056;-59
2023/05/22 11:04:05;;;;;;;22.77;12.70;;;20.60;99.90;;;;;;5045658;28;20414;-60
2023/05/22 11:06:40;;;;;;;24.88;12.27;;;20.70;99.90;;;;;;5043969;28;20143;-59
2023/05/22 11:09:22;;;;;;;28.33;12.90;;;20.70;99.90;;;;;;5045520;28;20045;-59
2023/05/22 11:12:15;;;;;;;23.83;12.57;;;20.70;99.90;;;;;;5044212;28;20041;-59
2023/05/22 11:14:42;;;;;;;;;;;20.90;99.90;;;;;;5045549;28;20257;-58
2023/05/22 11:17:10;;;;;;;22.58;12.88;;;21.00;99.90;;;;;;5043474;28;19931;-59
2023/05/22 11:19:38;;;;;;;20.92;12.75;;;21.00;99.90;;;;;;5046321;28;20041;-59
2023/05/22 11:22:04;;;;;;;23.85;12.75;;;21.10;99.90;;;;;;5044486;28;20046;-59
2023/05/22 11:24:33;;;;;;;25.23;13.30;;;21.20;99.90;;;;;;5045439;28;20124;-59
2023/05/22 11:27:06;;;;;;;19.30;12.57;;;21.30;99.90;;;;;;5049092;28;20114;-59
2023/05/22 11:29:32;;;;;;;22.85;12.50;;;21.40;99.90;;;;;;5041910;28;20045;-59
2023/05/22 11:31:58;;;;;;;19.67;12.98;;;21.60;99.90;;;;;;5044925;28;20117;-59
2023/05/22 11:34:25;;;;;;;20.23;13.07;;;21.80;99.90;;;;;;5044823;28;20765;-59
2023/05/22 11:36:58;;;;;;;21.15;12.70;;;22.00;99.90;;;;;;5044501;28;20072;-60
2023/05/22 11:39:24;;;;;;;20.88;13.82;;;22.30;99.90;;;;;;5042026;28;20048;-60
2023/05/22 11:41:50;;;;;;;18.85;12.40;;;22.70;99.90;;;;;;5037654;28;20072;-59
2023/05/22 11:44:16;;;;;;;18.13;12.25;;;23.00;99.90;;;;;;5037923;28;20077;-59
2023/05/22 11:46:42;;;;;;;23.17;12.45;;;23.20;99.90;;;;;;5040922;28;20041;-59
2023/05/22 11:49:12;;;;;;;21.77;12.70;;;23.50;99.90;;;;;;5045672;28;20120;-59
2023/05/22 11:51:40;;;;;;;17.52;11.55;;;23.70;99.90;;;;;;5041183;28;20175;-59
2023/05/22 11:54:06;;;;;;;19.95;12.20;;;24.00;99.90;;;;;;5045264;28;20136;-60
2023/05/22 11:56:32;;;;;;;13.48;10.13;;;24.10;99.90;;;;;;5038850;28;20454;-59
2023/05/22 11:58:58;;;;;;;17.58;10.45;;;24.30;99.90;;;;;;5040295;28;20520;-59
2023/05/22 12:01:24;;;;;;;15.13;10.77;;;24.40;99.90;;;;;;5031513;28;20049;-60
2023/05/22 12:03:49;;;;;;;15.70;10.43;;;24.50;99.90;;;;;;5044216;28;20045;-60
2023/05/22 12:06:17;;;;;;;14.65;10.45;;;24.60;99.90;;;;;;5036095;28;20041;-58
2023/05/22 12:08:43;;;;;;;18.58;12.27;;;24.70;99.90;;;;;;5036875;28;20044;-60
2023/05/22 12:11:10;;;;;;;17.88;12.93;;;24.90;99.90;;;;;;5038708;28;20098;-60
2023/05/22 12:13:36;;;;;;;16.65;12.55;;;25.20;99.90;;;;;;5041828;28;20037;-60
2023/05/22 12:16:17;;;;;;;17.75;12.52;;;25.40;99.90;;;;;;5039583;28;20057;-60
2023/05/22 12:18:43;;;;;;;18.02;12.45;;;25.50;99.90;;;;;;5045567;28;20056;-60
2023/05/22 12:21:10;;;;;;;17.42;13.25;;;25.70;99.90;;;;;;5042872;28;20390;-60
2023/05/22 12:23:35;;;;;;;20.92;14.15;;;25.90;99.90;;;;;;5040495;28;20050;-60
2023/05/22 12:26:07;;;;;;;19.98;13.98;;;26.00;99.90;;;;;;5037809;28;20041;-58
2023/05/22 12:28:33;;;;;;;21.10;14.15;;;25.90;99.90;;;;;;5033563;28;20029;-60
2023/05/22 12:30:59;;;;;;;19.55;14.20;;;25.70;99.90;;;;;;5040748;28;20063;-60